createdAt,value
2022-12-13T00:00:52.134Z,94.45
2022-12-13T00:03:24.100Z,92.53
2022-12-13T00:05:56.056Z,91.35
2022-12-13T00:08:28.027Z,99.13
2022-12-13T00:11:06.597Z,93.85
2022-12-13T00:13:39.272Z,88.53
2022-12-13T00:16:18.803Z,102.28
2022-12-13T00:18:55.675Z,93.30
2022-12-13T00:21:31.186Z,90.63
2022-12-13T00:24:03.355Z,96.35
2022-12-13T00:26:36.059Z,93.53
2022-12-13T00:29:09.119Z,93.43
2022-12-13T00:32:00.388Z,91.20
2022-12-13T00:34:32.988Z,83.63
2022-12-13T00:37:05.009Z,87.78
2022-12-13T00:39:37.054Z,89.80
2022-12-13T00:42:09.151Z,88.63
2022-12-13T00:44:41.087Z,89.20
2022-12-13T00:47:13.050Z,79.45
2022-12-13T00:49:44.993Z,95.22
2022-12-13T00:52:17.029Z,87.63
2022-12-13T00:54:48.967Z,94.82
2022-12-13T00:57:21.337Z,89.57
2022-12-13T00:59:53.361Z,95.22
2022-12-13T01:02:25.456Z,82.18
2022-12-13T01:04:57.368Z,89.95
2022-12-13T01:07:29.326Z,85.88
2022-12-13T01:10:01.388Z,102.15
2022-12-13T01:12:35.074Z,94.82
2022-12-13T01:15:07.935Z,92.22
2022-12-13T01:17:39.867Z,86.90
2022-12-13T01:20:12.247Z,84.78
2022-12-13T01:22:44.198Z,90.00
2022-12-13T01:25:16.529Z,93.90
2022-12-13T01:27:48.671Z,92.43
2022-12-13T01:30:20.612Z,92.30
2022-12-13T01:32:52.753Z,86.10
2022-12-13T01:35:24.765Z,87.22
2022-12-13T01:37:58.329Z,86.72
2022-12-13T01:40:30.324Z,81.07
2022-12-13T01:43:02.847Z,91.57
2022-12-13T01:45:46.734Z,88.28
2022-12-13T01:48:27.599Z,87.57
2022-12-13T01:51:04.040Z,95.32
2022-12-13T01:53:39.571Z,84.78
2022-12-13T01:56:24.387Z,88.60
2022-12-13T01:58:57.872Z,91.70
2022-12-13T02:01:30.413Z,86.05
2022-12-13T02:04:02.574Z,83.88
2022-12-13T02:06:38.911Z,85.00
2022-12-13T02:09:11.620Z,83.43
2022-12-13T02:11:44.880Z,81.38
2022-12-13T02:14:16.823Z,78.45
2022-12-13T02:17:21.167Z,94.85
2022-12-13T02:20:35.781Z,92.07
2022-12-13T02:23:41.428Z,102.43
2022-12-13T02:26:31.353Z,85.35
2022-12-13T02:29:30.778Z,77.50
2022-12-13T02:32:25.537Z,73.45
2022-12-13T02:35:07.702Z,86.85
2022-12-13T02:37:59.906Z,87.65
2022-12-13T02:41:00.910Z,83.35
2022-12-13T02:44:01.275Z,86.20
2022-12-13T02:46:39.626Z,88.20
2022-12-13T02:49:13.279Z,87.38
2022-12-13T02:51:46.023Z,80.80
2022-12-13T02:54:18.081Z,91.10
2022-12-13T02:57:00.458Z,94.15
2022-12-13T02:59:38.587Z,91.50
2022-12-13T03:03:01.475Z,95.85
2022-12-13T03:06:24.361Z,84.60
2022-12-13T03:09:08.326Z,80.18
2022-12-13T03:12:36.674Z,87.93
2022-12-13T03:15:34.988Z,81.93
2022-12-13T03:18:19.153Z,84.43
2022-12-13T03:20:55.424Z,79.95
2022-12-13T03:23:28.301Z,79.65
2022-12-13T03:26:07.209Z,83.22
2022-12-13T03:28:39.736Z,86.13
2022-12-13T03:31:11.720Z,85.45
2022-12-13T03:33:43.783Z,91.15
2022-12-13T03:36:17.003Z,79.95
2022-12-13T03:38:52.438Z,86.60
2022-12-13T03:41:31.591Z,78.13
2022-12-13T03:44:06.581Z,84.68
2022-12-13T03:46:39.119Z,90.10
2022-12-13T03:49:15.364Z,88.68
2022-12-13T03:51:49.243Z,85.63
2022-12-13T03:54:21.259Z,84.20
2022-12-13T03:56:53.234Z,84.35
2022-12-13T03:59:25.203Z,77.70
2022-12-13T04:01:57.286Z,79.30
2022-12-13T04:04:29.436Z,84.32
2022-12-13T04:07:01.355Z,87.18
2022-12-13T04:09:33.322Z,91.25
2022-12-13T04:12:24.210Z,77.38
2022-12-13T04:14:56.137Z,76.55
2022-12-13T04:17:28.092Z,91.82
2022-12-13T04:20:00.180Z,87.43
2022-12-13T04:22:32.115Z,78.30
2022-12-13T04:25:05.570Z,95.82
2022-12-13T04:27:38.169Z,78.75
2022-12-13T04:30:10.881Z,78.50
2022-12-13T04:32:42.856Z,85.32
2022-12-13T04:35:15.159Z,85.80
2022-12-13T04:37:47.206Z,84.22
2022-12-13T04:40:21.628Z,87.53
2022-12-13T04:42:54.743Z,88.70
2022-12-13T04:45:27.153Z,81.68
2022-12-13T04:47:59.118Z,74.55
2022-12-13T04:50:31.101Z,81.45
2022-12-13T04:53:03.026Z,75.30
2022-12-13T04:55:37.043Z,94.10
2022-12-13T04:58:09.011Z,81.00
2022-12-13T05:00:44.247Z,80.05
2022-12-13T05:03:16.511Z,88.85
2022-12-13T05:05:48.490Z,86.28
2022-12-13T05:08:20.633Z,79.82
2022-12-13T05:10:54.734Z,82.30
2022-12-13T05:13:26.721Z,88.00
2022-12-13T05:16:04.372Z,84.57
2022-12-13T05:18:37.165Z,73.50
2022-12-13T05:21:11.816Z,86.97
2022-12-13T05:23:43.785Z,77.43
2022-12-13T05:26:15.745Z,76.72
2022-12-13T05:28:47.683Z,82.90
2022-12-13T05:31:22.631Z,78.25
2022-12-13T05:34:01.257Z,67.85
2022-12-13T05:36:33.705Z,69.28
2022-12-13T05:39:05.648Z,69.03
2022-12-13T05:42:01.154Z,77.35
2022-12-13T05:44:34.176Z,72.15
2022-12-13T05:47:06.094Z,72.78
2022-12-13T05:49:39.635Z,75.18
2022-12-13T05:52:20.163Z,75.50
2022-12-13T05:55:01.035Z,84.60
2022-12-13T05:57:34.175Z,73.28
2022-12-13T06:00:28.534Z,86.78
2022-12-13T06:03:01.944Z,74.43
2022-12-13T06:05:34.324Z,72.32
2022-12-13T06:08:23.900Z,76.43
2022-12-13T06:11:10.901Z,78.45
2022-12-13T06:13:44.743Z,63.97
2022-12-13T06:16:22.807Z,70.40
2022-12-13T06:19:03.653Z,84.25
2022-12-13T06:21:41.433Z,67.80
2022-12-13T06:24:20.173Z,70.57
2022-12-13T06:26:53.300Z,72.57
2022-12-13T06:29:26.144Z,87.93
2022-12-13T06:32:02.389Z,75.65
2022-12-13T06:34:36.906Z,72.30
2022-12-13T06:37:13.415Z,75.43
2022-12-13T06:39:45.393Z,78.13
2022-12-13T06:42:22.164Z,75.38
2022-12-13T06:44:55.828Z,83.50
2022-12-13T06:47:31.345Z,76.65
2022-12-13T06:50:05.998Z,79.65
2022-12-13T06:52:38.167Z,77.13
2022-12-13T06:55:10.355Z,73.50
2022-12-13T06:57:43.919Z,85.55
2022-12-13T07:00:21.743Z,79.43
2022-12-13T07:02:55.645Z,84.43
2022-12-13T07:05:27.725Z,82.30
2022-12-13T07:07:59.811Z,76.72
2022-12-13T07:10:32.859Z,81.82
2022-12-13T07:13:04.765Z,76.43
2022-12-13T07:15:36.777Z,80.93
2022-12-13T07:18:08.729Z,78.15
2022-12-13T07:20:41.896Z,86.22
2022-12-13T07:23:14.153Z,82.95
2022-12-13T07:25:53.846Z,80.78
2022-12-13T07:28:25.932Z,91.90
2022-12-13T07:31:02.562Z,102.20
2022-12-13T07:33:35.071Z,99.53
2022-12-13T07:36:12.423Z,103.55
2022-12-13T07:38:45.300Z,107.05
2022-12-13T07:41:23.400Z,101.50
2022-12-13T07:43:56.490Z,116.97
2022-12-13T07:46:32.487Z,95.00
2022-12-13T07:49:06.149Z,111.35
2022-12-13T07:51:38.809Z,99.63
2022-12-13T07:54:10.770Z,101.38
2022-12-13T07:56:42.758Z,107.03
2022-12-13T07:59:14.840Z,123.95
2022-12-13T08:01:46.848Z,126.30
2022-12-13T08:04:18.954Z,102.97
2022-12-13T08:06:50.940Z,116.70
2022-12-13T08:09:23.477Z,111.63
2022-12-13T08:11:55.563Z,107.35
2022-12-13T08:14:28.141Z,113.03
2022-12-13T08:17:00.185Z,111.95
2022-12-13T08:19:32.131Z,120.00
2022-12-13T08:22:04.383Z,116.07
2022-12-13T08:24:46.202Z,120.80
2022-12-13T08:27:18.431Z,131.27
2022-12-13T08:29:50.494Z,137.15
2022-12-13T08:32:22.537Z,134.32
2022-12-13T08:34:54.444Z,142.50
2022-12-13T08:37:26.352Z,128.65
2022-12-13T08:39:58.295Z,141.05
2022-12-13T08:42:30.245Z,130.00
2022-12-13T08:45:02.167Z,125.03
2022-12-13T08:47:39.870Z,127.47
2022-12-13T08:50:13.612Z,134.02
2022-12-13T08:52:45.868Z,110.22
2022-12-13T08:55:21.113Z,117.78
2022-12-13T08:58:09.659Z,129.75
2022-12-13T09:00:42.756Z,125.18
2022-12-13T09:03:14.820Z,115.55
2022-12-13T09:05:46.895Z,113.35
2022-12-13T09:08:25.205Z,130.50
2022-12-13T09:11:00.070Z,121.43
2022-12-13T09:13:35.448Z,127.40
2022-12-13T09:16:24.616Z,116.32
2022-12-13T09:18:56.756Z,116.28
2022-12-13T09:21:31.656Z,116.18
2022-12-13T09:24:04.267Z,129.02
2022-12-13T09:26:38.161Z,118.18
2022-12-13T09:29:11.868Z,112.10
2022-12-13T09:31:48.312Z,131.23
2022-12-13T09:34:24.731Z,108.00
2022-12-13T09:37:01.746Z,113.47
2022-12-13T09:39:33.896Z,108.43
2022-12-13T09:42:21.041Z,102.35
2022-12-13T09:45:03.727Z,102.53
2022-12-13T09:47:46.850Z,103.03
2022-12-13T09:50:27.718Z,102.82
2022-12-13T09:53:02.730Z,114.82
2022-12-13T09:55:47.771Z,113.45
2022-12-13T09:58:28.699Z,121.95
2022-12-13T10:01:00.818Z,116.53
2022-12-13T10:03:32.820Z,113.18
2022-12-13T10:06:23.423Z,119.75
2022-12-13T10:08:59.179Z,121.93
2022-12-13T10:11:31.312Z,129.68
2022-12-13T10:14:12.783Z,122.43
2022-12-13T10:16:51.156Z,135.43
2022-12-13T10:19:40.401Z,126.35
2022-12-13T10:22:16.427Z,121.90
2022-12-13T10:25:00.327Z,143.65
2022-12-13T10:27:47.760Z,128.40
2022-12-13T10:30:28.770Z,116.90
2022-12-13T10:33:05.287Z,136.20
2022-12-13T10:35:39.574Z,131.15
2022-12-13T10:38:14.587Z,128.63
2022-12-13T10:40:49.093Z,136.60
2022-12-13T10:43:24.097Z,127.45
2022-12-13T10:45:58.913Z,124.20
2022-12-13T10:48:38.328Z,151.48
2022-12-13T10:51:14.408Z,146.07
2022-12-13T10:53:54.837Z,130.50
2022-12-13T10:57:00.229Z,140.70
2022-12-13T10:59:38.428Z,131.60
2022-12-13T11:02:28.523Z,133.60
2022-12-13T11:05:23.015Z,132.40
2022-12-13T11:07:56.196Z,111.45
2022-12-13T11:10:32.930Z,115.10
2022-12-13T11:13:07.490Z,115.50
2022-12-13T11:15:39.691Z,115.68
2022-12-13T11:18:23.017Z,105.45
2022-12-13T11:21:00.773Z,104.63
2022-12-13T11:23:38.424Z,95.28
2022-12-13T11:26:24.346Z,95.15
2022-12-13T11:29:15.032Z,97.78
2022-12-13T11:32:22.673Z,97.85
2022-12-13T11:35:26.296Z,88.38
2022-12-13T11:38:45.891Z,93.93
2022-12-13T11:41:39.617Z,93.43
2022-12-13T11:44:34.574Z,90.30
2022-12-13T11:47:24.864Z,86.47
2022-12-13T11:52:47.008Z,91.50
2022-12-13T11:55:39.607Z,79.65
2022-12-13T11:59:01.277Z,96.25
2022-12-13T12:01:51.740Z,97.63
2022-12-13T12:04:50.081Z,97.47
2022-12-13T12:08:12.651Z,85.85
2022-12-13T12:10:49.832Z,93.63
2022-12-13T12:13:50.761Z,97.70
2022-12-13T12:16:35.197Z,85.50
2022-12-13T12:19:15.579Z,82.60
2022-12-13T12:25:21.832Z,91.93
2022-12-13T12:28:26.757Z,88.72
2022-12-13T12:31:14.546Z,81.50
2022-12-13T12:34:16.675Z,85.07
2022-12-13T12:37:23.792Z,96.47
2022-12-13T12:40:05.987Z,83.95
2022-12-13T12:43:14.053Z,86.53
2022-12-13T12:45:57.604Z,83.97
2022-12-13T12:49:01.666Z,90.93
2022-12-13T12:52:22.295Z,87.38
2022-12-13T12:55:31.011Z,87.37
2022-12-13T12:58:17.833Z,87.57
2022-12-13T13:00:52.495Z,85.35
2022-12-13T13:03:31.680Z,70.25
2022-12-13T13:06:12.857Z,85.55
2022-12-13T13:08:59.227Z,91.25
2022-12-13T13:11:43.135Z,87.25
2022-12-13T13:14:36.548Z,81.50
2022-12-13T13:17:17.289Z,95.55
2022-12-13T13:20:18.404Z,86.20
2022-12-13T13:23:38.677Z,94.55
2022-12-13T13:28:47.953Z,80.82
2022-12-13T13:31:20.093Z,81.25
2022-12-13T13:33:52.422Z,75.03
2022-12-13T13:36:40.584Z,87.68
2022-12-13T13:40:00.039Z,92.45
2022-12-13T13:42:33.068Z,88.07
2022-12-13T13:45:27.042Z,96.13
2022-12-13T13:48:19.845Z,100.10
2022-12-13T13:51:49.342Z,89.30
2022-12-13T13:55:00.077Z,99.30
2022-12-13T13:58:26.469Z,93.13
2022-12-13T14:01:32.266Z,91.75
2022-12-13T14:04:43.882Z,94.57
2022-12-13T14:07:55.404Z,86.72
2022-12-13T14:11:09.096Z,97.50
2022-12-13T14:14:21.803Z,84.97
2022-12-13T14:17:50.608Z,102.03
2022-12-13T14:20:52.794Z,103.75
2022-12-13T14:23:59.033Z,94.85
2022-12-13T14:26:54.112Z,91.50
2022-12-13T14:29:33.059Z,90.35
2022-12-13T14:32:26.424Z,105.40
2022-12-13T14:35:26.249Z,89.30
2022-12-13T14:38:08.179Z,89.00
2022-12-13T14:40:52.178Z,95.85
2022-12-13T14:43:30.917Z,89.82
2022-12-13T14:46:07.295Z,91.38
2022-12-13T14:48:55.332Z,92.70
2022-12-13T14:51:38.542Z,94.22
2022-12-13T14:54:25.719Z,93.50
2022-12-13T14:57:04.710Z,101.03
2022-12-13T14:59:49.969Z,102.47
2022-12-13T15:02:31.224Z,100.90
2022-12-13T15:05:06.076Z,89.95
2022-12-13T15:07:42.391Z,91.18
2022-12-13T15:10:40.296Z,95.22
2022-12-13T15:13:59.752Z,96.63
2022-12-13T15:16:31.800Z,87.87
2022-12-13T15:19:30.816Z,97.45
2022-12-13T15:24:41.917Z,94.80
2022-12-13T15:27:20.522Z,94.70
2022-12-13T15:29:54.342Z,113.10
2022-12-13T15:32:26.522Z,97.45
2022-12-13T15:35:15.883Z,101.40
2022-12-13T15:37:48.155Z,103.47
2022-12-13T15:40:20.349Z,94.63
2022-12-13T15:42:52.543Z,105.40
2022-12-13T15:45:33.163Z,97.68
2022-12-13T15:48:27.924Z,106.97
2022-12-13T15:51:29.124Z,94.32
2022-12-13T15:54:19.321Z,112.43
2022-12-13T15:57:17.597Z,95.60
2022-12-13T16:00:30.180Z,101.47
2022-12-13T16:03:19.209Z,97.45
2022-12-13T16:05:56.755Z,95.20
2022-12-13T16:08:32.144Z,98.55
2022-12-13T16:11:05.851Z,94.82
2022-12-13T16:13:38.827Z,104.97
2022-12-13T16:16:28.299Z,99.55
2022-12-13T16:19:01.280Z,111.93
2022-12-13T16:21:33.340Z,96.97
2022-12-13T16:24:05.679Z,95.85
2022-12-13T16:26:37.748Z,92.35
2022-12-13T16:29:14.860Z,110.32
2022-12-13T16:31:47.479Z,105.97
2022-12-13T16:34:19.799Z,111.68
2022-12-13T16:36:59.818Z,115.40
2022-12-13T16:39:32.924Z,105.75
2022-12-13T16:42:05.082Z,101.45
2022-12-13T16:44:38.870Z,101.72
2022-12-13T16:47:20.579Z,104.97
2022-12-13T16:50:10.379Z,107.10
2022-12-13T16:52:42.469Z,103.28
2022-12-13T16:55:14.613Z,99.53
2022-12-13T16:58:00.093Z,100.07
2022-12-13T17:00:32.159Z,104.82
2022-12-13T17:03:05.717Z,111.28
2022-12-13T17:05:37.699Z,102.45
2022-12-13T17:08:16.235Z,100.93
2022-12-13T17:10:48.163Z,101.72
2022-12-13T17:13:30.278Z,110.22
2022-12-13T17:16:05.766Z,111.90
2022-12-13T17:18:37.770Z,112.07
2022-12-13T17:21:11.150Z,99.00
2022-12-13T17:23:43.539Z,104.30
2022-12-13T17:26:15.531Z,127.20
2022-12-13T17:28:47.526Z,112.00
2022-12-13T17:31:20.407Z,128.05
2022-12-13T17:33:52.794Z,108.93
2022-12-13T17:36:26.912Z,116.07
2022-12-13T17:38:59.191Z,121.13
2022-12-13T17:41:31.226Z,103.47
2022-12-13T17:44:03.213Z,111.97
2022-12-13T17:46:35.223Z,103.88
2022-12-13T17:49:07.190Z,113.30
2022-12-13T17:51:39.237Z,105.95
2022-12-13T17:54:12.155Z,101.25
2022-12-13T17:56:44.192Z,103.72
2022-12-13T17:59:17.536Z,96.22
2022-12-13T18:01:50.764Z,105.50
2022-12-13T18:04:23.527Z,103.75
2022-12-13T18:06:56.615Z,114.65
2022-12-13T18:09:28.755Z,109.05
2022-12-13T18:12:00.716Z,103.78
2022-12-13T18:14:32.684Z,104.88
2022-12-13T18:17:05.310Z,96.38
2022-12-13T18:19:37.256Z,101.63
2022-12-13T18:22:09.469Z,109.30
2022-12-13T18:24:41.413Z,105.85
2022-12-13T18:27:13.366Z,109.82
2022-12-13T18:29:58.401Z,96.50
2022-12-13T18:32:33.423Z,97.50
2022-12-13T18:35:06.152Z,106.00
2022-12-13T18:37:38.329Z,101.90
2022-12-13T18:40:10.927Z,105.93
2022-12-13T18:42:42.938Z,106.47
2022-12-13T18:45:14.881Z,114.43
2022-12-13T18:47:47.180Z,94.00
2022-12-13T18:50:19.633Z,100.93
2022-12-13T18:52:52.189Z,109.05
2022-12-13T18:55:24.835Z,108.43
2022-12-13T18:57:57.065Z,111.50
2022-12-13T19:00:29.938Z,101.45
2022-12-13T19:03:02.079Z,106.28
2022-12-13T19:05:34.091Z,94.63
2022-12-13T19:08:06.144Z,100.53
2022-12-13T19:10:38.422Z,97.65
2022-12-13T19:13:11.039Z,101.43
2022-12-13T19:15:43.156Z,105.55
2022-12-13T19:18:15.339Z,99.75
2022-12-13T19:20:53.709Z,108.95
2022-12-13T19:23:26.230Z,97.78
2022-12-13T19:25:58.527Z,104.43
2022-12-13T19:28:30.583Z,107.53
2022-12-13T19:31:11.409Z,103.90
2022-12-13T19:33:44.040Z,108.65
2022-12-13T19:36:16.234Z,103.50
2022-12-13T19:38:48.346Z,104.10
2022-12-13T19:41:20.768Z,105.60
2022-12-13T19:43:53.682Z,104.68
2022-12-13T19:46:25.865Z,109.10
2022-12-13T19:48:57.871Z,110.70
2022-12-13T19:51:34.417Z,108.90
2022-12-13T19:54:10.765Z,108.47
2022-12-13T19:56:42.866Z,113.18
2022-12-13T19:59:14.994Z,92.85
2022-12-13T20:01:47.067Z,110.72
2022-12-13T20:04:20.419Z,102.22
2022-12-13T20:06:52.536Z,98.90
2022-12-13T20:09:24.885Z,96.25
2022-12-13T20:11:57.110Z,106.75
2022-12-13T20:14:29.604Z,106.28
2022-12-13T20:17:01.666Z,105.72
2022-12-13T20:19:33.756Z,100.38
2022-12-13T20:22:06.238Z,107.65
2022-12-13T20:24:38.449Z,102.65
2022-12-13T20:27:10.630Z,110.85
2022-12-13T20:29:42.755Z,100.03
2022-12-13T20:32:21.450Z,107.00
2022-12-13T20:34:55.133Z,107.68
2022-12-13T20:37:27.658Z,104.65
2022-12-13T20:40:00.464Z,107.57
2022-12-13T20:42:33.580Z,104.13
2022-12-13T20:45:06.512Z,97.55
2022-12-13T20:47:38.711Z,112.05
2022-12-13T20:50:11.079Z,112.75
2022-12-13T20:52:47.707Z,101.15
2022-12-13T20:55:22.779Z,100.75
2022-12-13T20:57:54.755Z,107.38
2022-12-13T21:00:27.000Z,96.82
2022-12-13T21:02:59.191Z,112.15
2022-12-13T21:05:31.165Z,105.80
2022-12-13T21:08:21.621Z,105.30
2022-12-13T21:11:03.441Z,98.75
2022-12-13T21:13:37.148Z,107.18
2022-12-13T21:16:09.242Z,99.68
2022-12-13T21:18:41.511Z,106.75
2022-12-13T21:21:13.622Z,108.63
2022-12-13T21:23:45.653Z,111.72
2022-12-13T21:26:18.393Z,113.43
2022-12-13T21:28:55.859Z,106.97
2022-12-13T21:31:29.483Z,99.10
2022-12-13T21:34:02.755Z,110.65
2022-12-13T21:36:41.217Z,97.57
2022-12-13T21:39:23.015Z,104.03
2022-12-13T21:41:55.741Z,99.88
2022-12-13T21:44:28.507Z,100.53
2022-12-13T21:47:15.845Z,99.28
2022-12-13T21:49:48.442Z,106.03
2022-12-13T21:52:20.884Z,103.80
2022-12-13T21:55:03.411Z,101.57
2022-12-13T21:58:07.783Z,93.78
2022-12-13T22:00:39.993Z,88.82
2022-12-13T22:03:12.303Z,107.10
2022-12-13T22:05:44.738Z,104.38
2022-12-13T22:08:16.699Z,101.38
2022-12-13T22:11:15.108Z,104.05
2022-12-13T22:13:50.015Z,97.20
2022-12-13T22:16:22.111Z,97.70
2022-12-13T22:18:55.725Z,96.03
2022-12-13T22:21:27.774Z,93.95
2022-12-13T22:23:59.772Z,96.00
2022-12-13T22:26:31.755Z,96.53
2022-12-13T22:29:04.153Z,91.10
2022-12-13T22:31:36.189Z,99.32
2022-12-13T22:34:09.136Z,100.68
2022-12-13T22:36:41.194Z,98.03
2022-12-13T22:39:18.642Z,98.63
2022-12-13T22:41:52.246Z,97.50
2022-12-13T22:44:24.280Z,88.90
2022-12-13T22:46:56.283Z,87.25
2022-12-13T22:49:28.294Z,86.78
2022-12-13T22:52:00.354Z,99.25
2022-12-13T22:54:32.309Z,93.53
2022-12-13T22:57:04.628Z,87.38
2022-12-13T22:59:36.682Z,83.90
2022-12-13T23:02:09.995Z,90.15
2022-12-13T23:04:42.200Z,87.53
2022-12-13T23:07:14.181Z,90.93
2022-12-13T23:09:46.255Z,92.15
2022-12-13T23:12:37.138Z,94.43
2022-12-13T23:15:10.234Z,91.75
2022-12-13T23:17:42.236Z,91.20
2022-12-13T23:20:14.258Z,82.85
2022-12-13T23:22:46.400Z,99.55
2022-12-13T23:25:18.370Z,93.88
2022-12-13T23:27:50.300Z,87.00
2022-12-13T23:30:22.200Z,83.55
2022-12-13T23:32:55.964Z,86.05
2022-12-13T23:35:27.931Z,86.28
2022-12-13T23:37:59.890Z,98.32
2022-12-13T23:40:31.841Z,79.72
2022-12-13T23:43:03.948Z,81.05
2022-12-13T23:45:35.861Z,83.70
2022-12-13T23:48:07.806Z,90.20
2022-12-13T23:50:39.719Z,86.40
2022-12-13T23:53:11.688Z,74.65
2022-12-13T23:55:43.688Z,74.20
2022-12-13T23:58:22.632Z,89.93
